Time;durP1;ratioP1;P1;durP2;ratioP2;P2;SDS_P1;SDS_P2;PMS_P1;PMS_P2;Temp;Humidity;BMP_temperature;BMP_pressure;BME280_temperature;BME280_humidity;BME280_pressure;Samples;Min_cycle;Max_cycle;Signal;HPM_P1;HPM_P2
2022/10/24 00:00:57;;;;;;;;;4.50;4.00;;;;;29.89;100.00;101334.47;6344625;22;51285;-47
2022/10/24 00:03:42;;;;;;;;;6.25;4.00;;;;;29.89;100.00;101328.97;6344037;22;51097;-45
2022/10/24 00:06:26;;;;;;;;;6.25;5.50;;;;;29.89;100.00;101318.00;6343751;22;51045;-46
2022/10/24 00:09:11;;;;;;;;;17.75;14.75;;;;;29.88;100.00;101311.66;6344682;22;51480;-46
2022/10/24 00:11:56;;;;;;;;;49.25;34.25;;;;;29.83;100.00;101300.16;6343396;22;51066;-45
2022/10/24 00:14:40;;;;;;;;;39.50;33.00;;;;;29.86;100.00;101312.75;6343662;22;51066;-45
2022/10/24 00:17:25;;;;;;;;;51.75;39.75;;;;;29.87;100.00;101295.31;6344860;22;50972;-45
2022/10/24 00:20:10;;;;;;;;;34.75;29.25;;;;;29.91;100.00;101305.91;6344315;22;51096;-46
2022/10/24 00:22:54;;;;;;;;;46.75;33.25;;;;;29.91;100.00;101297.69;6343635;22;51016;-45
2022/10/24 00:25:39;;;;;;;;;40.50;31.50;;;;;29.90;100.00;101282.22;6344451;22;51530;-46
2022/10/24 00:28:24;;;;;;;;;34.50;28.00;;;;;29.89;100.00;101279.59;6343359;22;51216;-45
2022/10/24 00:31:13;;;;;;;;;26.50;22.00;;;;;29.88;100.00;101276.00;6343572;22;51098;-45
2022/10/24 00:33:58;;;;;;;;;26.50;25.50;;;;;29.89;100.00;101263.16;6343675;22;51515;-45
2022/10/24 05:28:58;;;;;;;;;18.50;17.25;;;;;28.84;100.00;101269.97;4352636;32;51089;-45
2022/10/24 05:31:43;;;;;;;;;26.00;22.25;;;;;28.87;100.00;101277.97;5096721;27;51088;-46
2022/10/24 05:34:27;;;;;;;;;24.25;22.25;;;;;28.86;100.00;101278.97;5071454;27;51123;-45
2022/10/24 05:37:13;;;;;;;;;24.25;19.75;;;;;28.87;100.00;101286.19;5093025;27;51170;-49
2022/10/24 05:39:57;;;;;;;;;32.75;27.00;;;;;28.85;100.00;101288.16;5092198;27;51506;-48
2022/10/24 05:42:42;;;;;;;;;31.75;25.75;;;;;28.81;100.00;101283.88;5076003;27;51286;-48
2022/10/24 05:45:26;;;;;;;;;33.00;27.75;;;;;28.91;100.00;101289.56;5085532;27;51083;-47
2022/10/24 05:48:11;;;;;;;;;33.50;27.75;;;;;28.95;100.00;101299.31;5098014;27;51421;-46
2022/10/24 05:50:58;;;;;;;;;27.00;24.00;;;;;28.98;100.00;101292.75;5087403;27;51066;-45
2022/10/24 05:53:43;;;;;;;;;26.25;22.75;;;;;29.10;100.00;101300.06;5091179;27;51185;-47
2022/10/24 05:56:28;;;;;;;;;34.50;30.25;;;;;29.25;100.00;101305.41;5089305;27;51124;-47
2022/10/24 05:59:12;;;;;;;;;31.25;28.50;;;;;29.43;100.00;101314.16;5101554;27;51183;-46
2022/10/24 06:01:57;;;;;;;;;27.00;25.25;;;;;29.56;100.00;101308.63;5092532;27;51190;-44
2022/10/24 06:04:41;;;;;;;;;27.00;25.50;;;;;29.77;100.00;101315.22;5099406;27;51446;-48
2022/10/24 06:07:26;;;;;;;;;29.75;25.00;;;;;30.08;100.00;101323.88;5079307;27;51429;-46
2022/10/24 06:10:11;;;;;;;;;33.00;30.75;;;;;30.34;100.00;101328.31;5084484;27;51494;-44
2022/10/24 06:12:56;;;;;;;;;44.75;34.00;;;;;30.47;100.00;101320.88;5082350;27;51344;-44
2022/10/24 06:15:42;;;;;;;;;32.25;29.75;;;;;30.71;100.00;101329.03;5099894;27;51535;-47
2022/10/24 06:18:26;;;;;;;;;34.50;29.25;;;;;30.83;100.00;101327.19;5092692;27;51484;-42
2022/10/24 06:21:12;;;;;;;;;31.00;28.50;;;;;30.83;100.00;101327.19;5080981;27;50994;-43
2022/10/24 06:23:56;;;;;;;;;39.75;30.50;;;;;30.80;100.00;101324.69;5089205;27;51484;-45
2022/10/24 06:26:41;;;;;;;;;42.75;32.50;;;;;30.81;100.00;101331.94;5085954;27;51076;-44
2022/10/24 06:29:26;;;;;;;;;53.00;43.25;;;;;30.90;100.00;101330.34;5081659;27;52886;-45
2022/10/24 06:32:11;;;;;;;;;44.50;34.75;;;;;31.00;100.00;101333.19;5090664;27;51256;-45
2022/10/24 06:34:56;;;;;;;;;36.00;32.00;;;;;31.19;100.00;101341.72;5100430;27;51094;-45
2022/10/24 06:37:40;;;;;;;;;40.50;32.50;;;;;31.66;100.00;101346.16;5089533;27;51280;-46
2022/10/24 06:40:25;;;;;;;;;42.75;33.75;;;;;32.15;100.00;101349.38;5100112;27;51558;-44
2022/10/24 06:43:10;;;;;;;;;31.75;30.25;;;;;32.74;100.00;101358.09;5101937;27;51149;-44
2022/10/24 06:45:54;;;;;;;;;34.00;30.25;;;;;33.53;100.00;101349.19;5096097;27;51098;-46
2022/10/24 06:48:39;;;;;;;;;34.75;30.50;;;;;34.34;100.00;101344.47;5088671;27;51155;-44
2022/10/24 06:51:24;;;;;;;;;36.50;30.75;;;;;35.11;100.00;101329.78;5086325;27;51214;-45
2022/10/24 06:54:09;;;;;;;;;31.00;27.25;;;;;35.79;100.00;101336.81;5097150;27;51561;-48
2022/10/24 06:56:53;;;;;;;;;30.25;28.00;;;;;36.12;100.00;101334.38;5098540;27;51067;-44
2022/10/24 06:59:38;;;;;;;;;30.25;28.00;;;;;36.31;100.00;101341.66;5097765;27;51149;-44
2022/10/24 07:02:23;;;;;;;;;22.50;21.75;;;;;36.73;100.00;101340.94;5089596;27;51417;-46
2022/10/24 07:05:11;;;;;;;;;33.00;27.50;;;;;37.37;100.00;101337.81;5091805;27;51605;-44
2022/10/24 07:07:56;;;;;;;;;28.00;27.75;;;;;37.93;100.00;101342.88;5101437;27;51063;-45
2022/10/24 07:10:40;;;;;;;;;29.75;25.00;;;;;38.27;100.00;101340.97;5085299;27;51131;-44
2022/10/24 07:13:25;;;;;;;;;24.25;20.00;;;;;38.36;100.00;101337.19;5101307;27;51138;-44
2022/10/24 07:16:10;;;;;;;;;27.25;21.00;;;;;38.30;100.00;101335.06;5101245;27;51171;-44
2022/10/24 07:18:55;;;;;;;;;24.50;20.25;;;;;38.34;100.00;101347.59;5088081;27;51419;-46
2022/10/24 07:21:39;;;;;;;;;25.25;23.25;;;;;38.31;100.00;101356.22;5091888;27;51085;-43
2022/10/24 07:24:24;;;;;;;;;27.75;24.00;;;;;38.29;100.00;101359.19;5092575;27;51157;-49
2022/10/24 07:27:09;;;;;;;;;27.50;25.75;;;;;38.30;100.00;101351.75;5086838;27;52012;-45
2022/10/24 07:29:54;;;;;;;;;29.25;25.50;;;;;38.34;100.00;101358.72;5091290;27;51147;-45
2022/10/24 07:32:38;;;;;;;;;27.50;20.00;;;;;38.41;100.00;101368.09;5085718;27;51178;-46
2022/10/24 07:35:23;;;;;;;;;23.25;21.75;;;;;38.52;100.00;101377.13;5081110;27;51245;-44
2022/10/24 07:38:08;;;;;;;;;23.75;19.75;;;;;38.60;100.00;101368.78;5085306;27;51140;-48
2022/10/24 07:40:52;;;;;;;;;27.50;22.75;;;;;38.57;100.00;101363.56;5082877;27;51111;-45
2022/10/24 07:43:37;;;;;;;;;25.50;22.00;;;;;38.84;100.00;101387.34;5080154;27;51574;-44
2022/10/24 07:46:23;;;;;;;;;18.00;17.50;;;;;38.95;100.00;101383.31;5083995;27;51212;-47
2022/10/24 07:49:08;;;;;;;;;19.25;17.50;;;;;38.84;100.00;101376.22;5100344;27;51456;-46
2022/10/24 07:51:52;;;;;;;;;18.00;13.50;;;;;39.03;100.00;101400.00;5086749;27;52175;-44
2022/10/24 07:54:37;;;;;;;;;24.75;17.25;;;;;39.25;100.00;101407.75;5088772;27;51146;-50
2022/10/24 07:57:21;;;;;;;;;24.00;17.50;;;;;39.24;100.00;101411.59;5099914;27;51148;-43
2022/10/24 08:00:06;;;;;;;;;18.00;13.75;;;;;39.16;100.00;101412.47;5080649;27;51066;-46
2022/10/24 08:02:51;;;;;;;;;17.50;13.50;;;;;39.28;100.00;101424.13;5079538;27;51339;-45
2022/10/24 08:05:38;;;;;;;;;12.25;11.75;;;;;39.38;100.00;101413.66;5082249;27;52240;-44
2022/10/24 08:08:23;;;;;;;;;10.75;8.50;;;;;39.34;100.00;101417.84;5086092;27;51108;-43
2022/10/24 08:11:13;;;;;;;;;9.00;6.50;;;;;39.41;100.00;101415.22;5100158;27;51210;-45
2022/10/24 08:13:58;;;;;;;;;15.50;12.00;;;;;39.54;100.00;101418.28;5084440;27;51066;-47
2022/10/24 08:16:44;;;;;;;;;15.50;12.25;;;;;39.67;100.00;101418.56;5081138;27;51524;-47
2022/10/24 08:19:28;;;;;;;;;10.25;8.75;;;;;39.76;100.00;101422.19;5089858;27;51283;-49
2022/10/24 08:22:13;;;;;;;;;10.50;9.25;;;;;39.81;100.00;101428.09;5080073;27;51257;-45
2022/10/24 08:24:57;;;;;;;;;12.50;9.75;;;;;39.88;100.00;101427.34;5087221;27;51161;-44
2022/10/24 08:27:42;;;;;;;;;8.50;8.00;;;;;39.80;100.00;101426.38;5082050;27;51177;-44
2022/10/24 08:30:27;;;;;;;;;8.25;5.25;;;;;39.72;100.00;101429.22;5068622;27;51244;-42
2022/10/24 08:33:12;;;;;;;;;9.75;6.75;;;;;39.62;100.00;101436.88;5086125;27;51932;-44
2022/10/24 08:36:02;;;;;;;;;4.75;3.50;;;;;39.50;100.00;101428.94;5095137;27;51103;-44
2022/10/24 08:38:47;;;;;;;;;8.50;8.25;;;;;39.57;100.00;101429.06;5096365;27;51324;-47
2022/10/24 08:41:39;;;;;;;;;7.00;7.00;;;;;39.66;100.00;101433.56;5083992;27;51466;-43
2022/10/24 08:44:34;;;;;;;;;13.00;8.75;;;;;39.64;100.00;101435.66;5097673;27;51349;-46
2022/10/24 08:47:34;;;;;;;;;8.75;7.00;;;;;39.75;100.00;101439.09;5092304;27;51219;-46
2022/10/24 08:50:26;;;;;;;;;12.75;9.25;;;;;39.84;100.00;101435.22;5077131;27;51483;-45
2022/10/24 08:53:14;;;;;;;;;12.50;10.00;;;;;39.83;100.00;101433.47;5088815;27;51577;-46
2022/10/24 08:56:00;;;;;;;;;9.25;9.25;;;;;39.80;100.00;101431.94;5084568;27;51290;-51
2022/10/24 08:58:45;;;;;;;;;12.00;9.00;;;;;39.78;100.00;101439.59;5083225;27;51122;-44
2022/10/24 09:01:56;;;;;;;;;12.00;8.50;;;;;39.73;100.00;101444.88;5075327;27;51100;-46
2022/10/24 09:04:49;;;;;;;;;9.25;7.75;;;;;39.81;100.00;101447.59;5068780;27;51137;-46
2022/10/24 09:07:34;;;;;;;;;10.50;9.50;;;;;39.76;100.00;101449.19;5071829;27;51364;-45
2022/10/24 09:10:25;;;;;;;;;12.25;8.50;;;;;39.51;100.00;101449.28;5073087;27;52481;-43
2022/10/24 09:13:14;;;;;;;;;11.50;7.75;;;;;39.31;100.00;101455.25;5071663;27;51228;-44
2022/10/24 09:15:59;;;;;;;;;11.25;10.25;;;;;39.05;100.00;101445.19;5080233;27;51145;-44
2022/10/24 09:18:46;;;;;;;;;13.50;10.00;;;;;38.87;100.00;101444.53;5083608;27;51521;-44
2022/10/24 09:21:30;;;;;;;;;12.25;10.25;;;;;38.73;100.00;101444.16;5099050;27;51039;-44
2022/10/24 09:24:46;;;;;;;;;12.00;9.50;;;;;38.53;100.00;101440.00;5071813;27;51309;-44
2022/10/24 09:27:36;;;;;;;;;14.75;11.00;;;;;38.37;100.00;101435.31;5100142;27;51228;-47
2022/10/24 09:30:24;;;;;;;;;10.75;10.75;;;;;38.29;100.00;101438.94;5088933;27;51212;-48
2022/10/24 09:33:35;;;;;;;;;11.75;10.00;;;;;38.21;100.00;101438.91;5083076;27;52870;-48
2022/10/24 09:36:23;;;;;;;;;15.75;12.00;;;;;38.12;100.00;101444.44;5088757;27;51403;-46
2022/10/24 09:39:28;;;;;;;;;18.25;13.25;;;;;38.09;100.00;101427.25;5083560;27;51100;-43
2022/10/24 09:42:20;;;;;;;;;0.00;0.00;;;;;37.91;100.00;101438.50;5073106;27;51088;-45
2022/10/24 09:45:27;;;;;;;;;10.75;9.25;;;;;37.76;100.00;101439.13;5084764;27;51192;-41
2022/10/24 09:48:43;;;;;;;;;12.25;11.75;;;;;37.72;100.00;101443.28;5101677;27;51202;-43
2022/10/24 09:51:37;;;;;;;;;12.00;10.75;;;;;37.67;100.00;101438.22;5091823;27;51230;-45
2022/10/24 09:54:27;;;;;;;;;11.50;9.50;;;;;37.62;100.00;101435.06;5088046;27;51206;-43
2022/10/24 09:57:16;;;;;;;;;11.75;10.75;;;;;37.52;100.00;101434.34;5099712;27;51124;-46
2022/10/24 10:00:02;;;;;;;;;11.25;11.25;;;;;37.45;100.00;101425.84;5102239;27;51303;-43
2022/10/24 10:02:58;;;;;;;;;10.50;10.25;;;;;37.44;100.00;101432.41;5089733;27;51360;-44
2022/10/24 10:05:44;;;;;;;;;11.50;9.75;;;;;37.39;100.00;101429.25;5082560;27;51242;-43
2022/10/24 10:08:35;;;;;;;;;8.00;7.00;;;;;37.29;100.00;101420.16;5093366;27;51250;-44
2022/10/24 10:11:32;;;;;;;;;11.00;8.25;;;;;37.12;100.00;101419.19;5102448;27;51043;-43
2022/10/24 10:14:22;;;;;;;;;17.00;9.00;;;;;37.02;100.00;101422.97;5068807;27;51165;-47
2022/10/24 10:17:07;;;;;;;;;13.75;13.00;;;;;37.02;100.00;101422.09;5081182;27;51141;-44
2022/10/24 10:19:53;;;;;;;;;11.50;10.25;;;;;36.86;100.00;101409.81;5094839;27;51130;-44
2022/10/24 10:22:37;;;;;;;;;12.00;11.75;;;;;36.80;100.00;101413.25;5080929;27;51275;-44
2022/10/24 10:25:31;;;;;;;;;18.50;11.75;;;;;36.72;100.00;101404.88;5102342;27;51153;-44
2022/10/24 10:28:21;;;;;;;;;14.25;12.00;;;;;36.74;100.00;101413.88;5084591;27;51229;-42
2022/10/24 10:31:08;;;;;;;;;10.75;10.75;;;;;36.73;100.00;101410.25;5079541;27;51216;-44
2022/10/24 10:33:57;;;;;;;;;13.25;9.25;;;;;36.75;100.00;101401.75;5075280;27;51142;-44
2022/10/24 10:36:53;;;;;;;;;13.50;10.25;;;;;36.71;100.00;101401.22;5098991;27;51450;-42
2022/10/24 10:39:49;;;;;;;;;11.00;9.25;;;;;36.62;100.00;101398.56;5101609;27;51121;-46
2022/10/24 10:42:52;;;;;;;;;10.25;10.25;;;;;36.54;100.00;101397.47;5069902;27;51507;-46
2022/10/24 10:46:10;;;;;;;;;12.75;12.25;;;;;36.45;100.00;101392.88;5093857;27;51472;-46
2022/10/24 10:49:08;;;;;;;;;13.50;10.50;;;;;36.40;100.00;101384.16;5076579;27;51221;-47
2022/10/24 10:52:02;;;;;;;;;19.25;13.25;;;;;36.39;100.00;101388.81;5081545;27;51091;-45
2022/10/24 10:55:27;;;;;;;;;17.25;12.50;;;;;36.35;100.00;101387.38;5077596;27;51409;-47
2022/10/24 10:58:41;;;;;;;;;13.50;12.50;;;;;36.34;100.00;101379.25;5076756;27;51153;-44
2022/10/24 11:01:56;;;;;;;;;10.75;9.25;;;;;36.32;100.00;101381.28;5068064;27;51199;-46
2022/10/24 11:05:18;;;;;;;;;11.75;11.00;;;;;36.28;100.00;101377.97;5065571;27;51251;-45
2022/10/24 11:08:19;;;;;;;;;13.75;10.00;;;;;36.32;100.00;101362.78;5099667;27;51200;-47
2022/10/24 11:11:10;;;;;;;;;18.00;10.50;;;;;36.40;100.00;101359.22;5089360;27;51391;-45
2022/10/24 11:14:23;;;;;;;;;12.00;10.50;;;;;36.38;100.00;101358.50;5080620;27;51233;-43
2022/10/24 11:17:18;;;;;;;;;14.00;12.00;;;;;36.27;100.00;101351.31;5079792;27;51055;-47
2022/10/24 11:20:20;;;;;;;;;18.50;11.75;;;;;36.21;100.00;101350.03;5067403;27;51277;-46
2022/10/24 11:23:34;;;;;;;;;11.00;11.00;;;;;36.34;100.00;101348.75;5079219;27;51472;-44
2022/10/24 11:26:18;;;;;;;;;8.00;8.00;;;;;36.69;100.00;101339.53;5074186;27;51225;-47
2022/10/24 11:29:32;;;;;;;;;10.75;7.75;;;;;37.06;100.00;101338.38;5080352;27;51052;-44
2022/10/24 11:32:31;;;;;;;;;9.00;8.75;;;;;37.37;100.00;101331.38;5091097;27;51126;-44
2022/10/24 11:35:24;;;;;;;;;11.50;8.25;;;;;37.54;100.00;101315.69;5095777;27;51265;-45
2022/10/24 11:38:15;;;;;;;;;10.00;10.00;;;;;37.67;100.00;101301.34;5068375;27;51504;-43
2022/10/24 11:41:21;;;;;;;;;14.25;10.25;;;;;37.77;100.00;101304.81;5073116;27;52907;-45
2022/10/24 11:44:15;;;;;;;;;15.75;11.75;;;;;37.78;100.00;101300.97;5094692;27;51086;-45
2022/10/24 11:47:23;;;;;;;;;10.00;8.25;;;;;37.87;100.00;101301.03;5077837;27;51222;-44
2022/10/24 11:50:38;;;;;;;;;11.25;9.50;;;;;37.91;100.00;101296.84;5077475;27;51298;-44
2022/10/24 11:53:38;;;;;;;;;8.00;8.00;;;;;37.95;100.00;101289.94;5087971;27;51106;-46
2022/10/24 11:56:35;;;;;;;;;10.50;7.50;;;;;38.01;100.00;101289.22;5070387;27;51091;-43
2022/10/24 11:59:24;;;;;;;;;12.25;10.75;;;;;37.95;100.00;101267.69;5096644;27;51035;-45
2022/10/24 12:02:33;;;;;;;;;9.25;7.25;;;;;38.02;100.00;101262.31;5078460;27;51182;-45
2022/10/24 12:05:46;;;;;;;;;10.50;8.25;;;;;37.99;100.00;101263.53;5081233;27;51142;-42
2022/10/24 12:08:55;;;;;;;;;10.25;7.00;;;;;38.00;100.00;101253.28;5069784;27;51286;-43
2022/10/24 12:11:42;;;;;;;;;9.50;9.00;;;;;37.96;100.00;101250.00;5081526;27;51162;-47
2022/10/24 12:14:37;;;;;;;;;12.75;8.00;;;;;37.85;100.00;101244.75;5073620;27;51590;-44
2022/10/24 12:17:55;;;;;;;;;15.00;10.75;;;;;37.89;100.00;101240.59;5092733;27;51735;-48
2022/10/24 12:20:40;;;;;;;;;13.75;11.75;;;;;37.93;100.00;101233.66;5091836;27;52593;-47
2022/10/24 12:23:26;;;;;;;;;9.25;8.50;;;;;37.99;100.00;101230.22;5091727;27;52362;-47
2022/10/24 12:26:14;;;;;;;;;12.25;9.50;;;;;37.97;100.00;101219.25;5089381;27;51147;-47
2022/10/24 12:29:04;;;;;;;;;9.00;7.25;;;;;38.00;100.00;101209.69;5098683;27;51128;-47
2022/10/24 12:31:49;;;;;;;;;10.50;10.50;;;;;38.03;100.00;101209.34;5081283;27;51934;-45
2022/10/24 12:34:42;;;;;;;;;10.50;7.50;;;;;38.02;100.00;101204.84;5073345;27;51185;-46
2022/10/24 12:37:33;;;;;;;;;9.50;8.75;;;;;37.93;100.00;101198.44;5081722;27;51087;-43
2022/10/24 12:40:51;;;;;;;;;12.75;10.25;;;;;37.88;100.00;101198.09;5082927;27;51191;-52
2022/10/24 12:43:42;;;;;;;;;11.25;10.00;;;;;37.75;100.00;101187.50;5084408;27;51403;-45
2022/10/24 12:46:26;;;;;;;;;12.00;9.75;;;;;37.66;100.00;101189.41;5081853;27;51027;-46
2022/10/24 12:49:26;;;;;;;;;9.25;9.25;;;;;37.50;100.00;101173.59;5087090;27;51508;-49
2022/10/24 12:52:29;;;;;;;;;10.75;10.00;;;;;37.14;100.00;101178.56;5095027;27;51355;-44
2022/10/24 12:55:36;;;;;;;;;10.25;10.00;;;;;36.76;100.00;101170.63;5087661;27;51103;-43
2022/10/24 12:58:34;;;;;;;;;12.75;11.00;;;;;36.48;100.00;101178.28;5096737;27;51323;-45
2022/10/24 13:01:26;;;;;;;;;9.50;7.75;;;;;36.28;100.00;101178.50;5096934;27;51134;-45
2022/10/24 13:04:58;;;;;;;;;9.25;7.50;;;;;35.99;100.00;101161.19;5072121;27;51209;-46
2022/10/24 13:07:58;;;;;;;;;10.50;10.00;;;;;35.72;100.00;101161.31;5083414;27;51202;-48
2022/10/24 13:11:07;;;;;;;;;14.25;11.25;;;;;35.65;100.00;101158.31;5076986;27;51252;-44
2022/10/24 13:14:09;;;;;;;;;12.75;8.50;;;;;35.54;100.00;101151.16;5085742;27;51149;-43
2022/10/24 13:17:17;;;;;;;;;14.25;10.50;;;;;35.32;100.00;101156.13;5085941;27;51282;-43
2022/10/24 13:20:23;;;;;;;;;7.00;7.00;;;;;35.16;100.00;101143.00;5078951;27;51401;-46
2022/10/24 13:23:27;;;;;;;;;8.25;6.50;;;;;35.04;100.00;101139.56;5063330;27;51194;-44
2022/10/24 13:26:41;;;;;;;;;7.25;7.00;;;;;35.04;100.00;101145.09;5066071;27;52028;-47
2022/10/24 13:29:25;;;;;;;;;9.25;6.25;;;;;35.02;100.00;101132.47;5057175;28;51032;-46
2022/10/24 13:32:10;;;;;;;;;9.00;8.00;;;;;34.94;100.00;101132.41;5057915;28;52199;-49
2022/10/24 13:34:55;;;;;;;;;9.00;7.50;;;;;34.95;100.00;101134.13;5056200;28;51104;-48
2022/10/24 13:37:49;;;;;;;;;7.00;5.75;;;;;34.91;100.00;101128.91;5053290;28;51383;-46
2022/10/24 13:40:35;;;;;;;;;8.50;7.50;;;;;34.90;100.00;101115.22;5057170;28;51179;-48
2022/10/24 13:43:20;;;;;;;;;8.25;5.25;;;;;34.87;100.00;101110.00;5055589;28;51423;-47
2022/10/24 13:46:08;;;;;;;;;5.50;5.50;;;;;34.77;100.00;101107.28;5054128;28;51408;-49
2022/10/24 13:48:54;;;;;;;;;7.25;7.25;;;;;34.69;100.00;101094.28;5055495;28;51097;-47
2022/10/24 13:51:51;;;;;;;;;7.00;7.00;;;;;34.73;100.00;101094.81;5058096;28;51149;-48
2022/10/24 13:54:36;;;;;;;;;8.25;6.00;;;;;34.66;100.00;101096.47;5054590;28;51360;-46
2022/10/24 13:57:30;;;;;;;;;6.50;4.75;;;;;34.64;100.00;101101.28;5057737;28;51133;-47
2022/10/24 14:00:26;;;;;;;;;7.25;4.25;;;;;34.47;100.00;101086.41;5051960;28;51275;-48
2022/10/24 14:03:19;;;;;;;;;7.50;5.50;;;;;34.35;100.00;101086.56;5055069;28;51189;-48
2022/10/24 14:06:07;;;;;;;;;9.00;4.00;;;;;34.26;100.00;101084.75;5061450;28;51203;-48
2022/10/24 14:08:53;;;;;;;;;6.50;6.00;;;;;34.16;100.00;101086.69;5059347;28;51150;-48
2022/10/24 14:11:43;;;;;;;;;7.75;7.00;;;;;34.12;100.00;101089.72;5059752;28;51122;-48
2022/10/24 14:14:31;;;;;;;;;6.50;6.50;;;;;34.14;100.00;101082.19;5060064;28;51479;-46
2022/10/24 14:17:21;;;;;;;;;7.00;6.00;;;;;34.19;100.00;101084.47;5056158;28;51351;-47
2022/10/24 14:20:08;;;;;;;;;11.75;7.50;;;;;34.23;100.00;101079.50;5061293;28;51204;-48
2022/10/24 14:22:53;;;;;;;;;7.00;5.50;;;;;34.24;100.00;101078.50;5056261;28;51396;-48
2022/10/24 14:25:38;;;;;;;;;10.50;5.75;;;;;34.22;100.00;101072.25;5058750;28;51311;-49
2022/10/24 14:28:26;;;;;;;;;7.00;5.50;;;;;34.23;100.00;101087.78;5086450;27;51504;-48
2022/10/24 14:31:33;;;;;;;;;4.75;4.75;;;;;34.30;100.00;101089.81;5070639;27;51220;-51
2022/10/24 14:34:20;;;;;;;;;6.50;6.50;;;;;34.39;100.00;101095.44;5096316;27;52233;-51
2022/10/24 14:37:07;;;;;;;;;8.25;7.50;;;;;34.33;100.00;101096.06;5102565;27;51455;-54
2022/10/24 14:39:53;;;;;;;;;7.25;5.75;;;;;34.22;100.00;101094.34;5094655;27;51152;-51
2022/10/24 14:42:38;;;;;;;;;7.50;6.25;;;;;34.20;100.00;101090.84;5089605;27;51381;-47
2022/10/24 14:45:25;;;;;;;;;8.00;6.00;;;;;34.11;100.00;101074.19;5100734;27;51157;-50
2022/10/24 14:48:22;;;;;;;;;6.50;5.25;;;;;34.10;100.00;101077.97;5092306;27;51179;-47
2022/10/24 14:51:37;;;;;;;;;8.75;7.00;;;;;34.07;100.00;101074.66;5101968;27;51202;-52
2022/10/24 14:54:24;;;;;;;;;8.00;5.75;;;;;34.12;100.00;101069.56;5094226;27;51483;-51
2022/10/24 14:57:17;;;;;;;;;10.75;10.75;;;;;34.05;100.00;101072.03;5077357;27;51363;-50
2022/10/24 15:00:06;;;;;;;;;11.25;7.25;;;;;34.02;100.00;101061.28;5101957;27;51220;-54
2022/10/24 15:03:00;;;;;;;;;6.00;5.50;;;;;33.96;100.00;101061.91;5090182;27;51556;-48
2022/10/24 15:06:11;;;;;;;;;8.25;7.00;;;;;34.11;100.00;101054.84;5102012;27;51175;-47
2022/10/24 15:09:16;;;;;;;;;9.00;5.75;;;;;34.26;100.00;101051.59;5079853;27;51082;-50
2022/10/24 15:12:02;;;;;;;;;9.75;8.00;;;;;34.36;100.00;101041.38;5083056;27;51088;-49
2022/10/24 15:14:49;;;;;;;;;6.75;5.00;;;;;34.34;100.00;101020.47;5087985;27;51594;-49
2022/10/24 15:17:33;;;;;;;;;4.00;2.75;;;;;34.32;100.00;101034.41;5100861;27;51105;-49
2022/10/24 15:20:21;;;;;;;;;5.75;5.50;;;;;34.26;100.00;101023.97;5078062;27;51231;-46
2022/10/24 15:54:38;;;;;;;;;14.00;11.50;;;;;32.85;100.00;101040.28;4326696;31;1920206;-51
2022/10/24 15:57:22;;;;;;;;;14.75;14.25;;;;;32.94;100.00;101042.16;5114672;27;51191;-48
2022/10/24 16:00:07;;;;;;;;;17.25;12.25;;;;;32.96;100.00;101042.88;5117206;27;51185;-48
2022/10/24 16:02:55;;;;;;;;;10.75;8.50;;;;;32.91;100.00;101040.53;5117529;27;51324;-50
2022/10/24 16:05:45;;;;;;;;;13.00;10.00;;;;;32.84;100.00;101055.91;5116936;27;51149;-51
2022/10/24 16:08:30;;;;;;;;;17.50;8.50;;;;;32.75;100.00;101054.00;5100138;27;51114;-53
2022/10/24 16:11:15;;;;;;;;;12.50;10.50;;;;;32.68;100.00;101061.94;5115478;27;51225;-48
2022/10/24 16:14:00;;;;;;;;;11.00;8.00;;;;;32.63;100.00;101052.38;5113164;27;51415;-50
2022/10/24 16:16:45;;;;;;;;;11.25;8.75;;;;;32.58;100.00;101061.06;5109882;27;51439;-48
2022/10/24 16:19:30;;;;;;;;;16.50;15.00;;;;;32.56;100.00;101065.84;5113530;27;51192;-57
2022/10/24 16:22:14;;;;;;;;;14.25;13.50;;;;;32.54;100.00;101056.88;5114701;27;51247;-48
2022/10/24 16:24:59;;;;;;;;;18.25;14.00;;;;;32.52;100.00;101056.13;5115226;27;51188;-51
2022/10/24 16:27:44;;;;;;;;;16.75;15.00;;;;;32.46;100.00;101054.81;5116575;27;51210;-49
2022/10/24 16:30:31;;;;;;;;;18.00;13.25;;;;;32.35;100.00;101053.03;5116995;27;51262;-51
2022/10/24 16:33:18;;;;;;;;;17.75;12.50;;;;;32.27;100.00;101066.63;5115946;27;51548;-53
2022/10/24 16:36:10;;;;;;;;;17.00;14.00;;;;;32.24;100.00;101059.53;5101549;27;51071;-49
2022/10/24 16:39:01;;;;;;;;;12.00;11.50;;;;;32.17;100.00;101061.06;5115710;27;51354;-52
2022/10/24 16:41:50;;;;;;;;;11.25;10.25;;;;;32.10;100.00;101057.13;5114644;27;52225;-52
2022/10/24 16:44:37;;;;;;;;;12.25;10.00;;;;;32.15;100.00;101071.34;5096856;27;51648;-52
2022/10/24 19:54:00;;;;;;;;;18.50;12.25;;;;;30.94;100.00;101356.53;4328048;32;51198;-50
2022/10/24 19:56:44;;;;;;;;;12.25;11.00;;;;;30.92;100.00;101350.28;5076863;28;51215;-52
2022/10/24 19:59:32;;;;;;;;;14.00;10.25;;;;;30.88;100.00;101349.66;5073473;28;51248;-49
2022/10/24 20:02:17;;;;;;;;;16.50;11.75;;;;;30.89;100.00;101358.81;5076606;28;51002;-52
2022/10/24 20:05:01;;;;;;;;;11.75;10.25;;;;;30.90;100.00;101355.06;5076093;28;51651;-47
2022/10/24 20:07:45;;;;;;;;;15.00;11.00;;;;;30.93;100.00;101354.78;5073256;28;51378;-50
2022/10/24 20:10:30;;;;;;;;;12.00;11.00;;;;;30.92;100.00;101361.28;5076262;28;51149;-49
2022/10/24 20:13:15;;;;;;;;;16.75;12.00;;;;;30.93;100.00;101354.78;5074490;28;51438;-51
2022/10/24 20:16:03;;;;;;;;;10.50;9.50;;;;;30.92;100.00;101364.03;5073479;28;51168;-47
2022/10/24 20:18:48;;;;;;;;;14.00;11.75;;;;;30.94;100.00;101366.66;5073097;28;51408;-47
2022/10/24 20:21:35;;;;;;;;;9.25;8.00;;;;;30.88;100.00;101362.53;5068886;28;51066;-51
2022/10/24 20:24:20;;;;;;;;;8.00;7.00;;;;;30.83;100.00;101357.41;5074207;28;51373;-50
2022/10/24 20:27:04;;;;;;;;;14.25;10.25;;;;;30.81;100.00;101367.66;5071092;28;51151;-54
2022/10/24 20:29:49;;;;;;;;;14.50;10.75;;;;;30.80;100.00;101370.50;5072589;28;51172;-50
2022/10/24 20:32:34;;;;;;;;;16.25;12.50;;;;;30.81;100.00;101372.25;5075103;28;51249;-51
2022/10/24 20:35:20;;;;;;;;;13.50;11.75;;;;;30.82;100.00;101372.16;5073258;28;51304;-46
2022/10/24 20:38:05;;;;;;;;;13.25;10.25;;;;;30.80;100.00;101382.38;5075131;28;51481;-54
2022/10/24 20:40:49;;;;;;;;;12.00;9.75;;;;;30.82;100.00;101368.50;5074997;28;51243;-51
2022/10/24 20:43:34;;;;;;;;;16.50;13.00;;;;;30.81;100.00;101386.00;5073341;28;51194;-50
2022/10/24 20:46:18;;;;;;;;;11.50;10.25;;;;;30.84;100.00;101396.75;5075221;28;51082;-49
2022/10/24 20:49:03;;;;;;;;;10.75;9.50;;;;;30.83;100.00;101395.88;5074545;28;51271;-53
2022/10/24 20:51:48;;;;;;;;;13.00;10.50;;;;;30.82;100.00;101391.38;5073935;28;51291;-49
2022/10/24 20:54:32;;;;;;;;;16.00;10.25;;;;;30.81;100.00;101400.63;5063061;28;51377;-50
2022/10/24 20:57:17;;;;;;;;;10.00;10.00;;;;;30.80;100.00;101397.97;5058712;28;51148;-52
2022/10/24 21:00:02;;;;;;;;;12.25;10.75;;;;;30.79;100.00;101396.25;5059515;28;51146;-52
2022/10/24 21:02:50;;;;;;;;;15.00;10.25;;;;;30.77;100.00;101393.59;5058676;28;51388;-49
2022/10/24 21:05:34;;;;;;;;;14.75;9.00;;;;;30.77;100.00;101412.84;5059223;28;51453;-50
2022/10/24 21:08:19;;;;;;;;;16.00;11.50;;;;;30.76;100.00;101419.31;5058159;28;51203;-52
2022/10/24 21:11:06;;;;;;;;;12.50;10.50;;;;;30.75;100.00;101420.31;5058399;28;51317;-50
2022/10/24 21:13:52;;;;;;;;;12.25;10.25;;;;;30.71;100.00;101419.69;5057796;28;51123;-49
2022/10/24 21:16:37;;;;;;;;;11.25;8.00;;;;;30.69;100.00;101432.66;5058840;28;51141;-53
2022/10/24 21:19:22;;;;;;;;;6.50;4.75;;;;;30.63;100.00;101426.78;5056755;28;51700;-54
2022/10/24 21:22:06;;;;;;;;;16.50;10.00;;;;;30.62;100.00;101439.63;5059321;28;51516;-49